createdAt,value
2022-11-24T00:01:19.860Z,98587.25
2022-11-24T00:04:03.175Z,98594.84
2022-11-24T00:06:33.510Z,98588.19
2022-11-24T00:09:02.394Z,98595.78
2022-11-24T00:11:32.718Z,98592.41
2022-11-24T00:14:00.518Z,98595.78
2022-11-24T00:16:36.632Z,98591.59
2022-11-24T00:19:09.013Z,98598.28
2022-11-24T00:21:37.638Z,98600.81
2022-11-24T00:24:04.843Z,98592.44
2022-11-24T00:26:34.568Z,98599.19
2022-11-24T00:29:05.187Z,98600.91
2022-11-24T00:31:41.705Z,98584.03
2022-11-24T00:34:12.774Z,98602.63
2022-11-24T00:36:40.545Z,98590.78
2022-11-24T00:39:12.069Z,98604.25
2022-11-24T00:41:39.025Z,98604.25
2022-11-24T00:44:06.491Z,98600.88
2022-11-24T00:46:34.620Z,98603.41
2022-11-24T00:49:01.638Z,98603.41
2022-11-24T00:51:32.515Z,98607.66
2022-11-24T00:54:01.178Z,98609.31
2022-11-24T00:56:29.827Z,98610.22
2022-11-24T00:58:57.340Z,98611.94
2022-11-24T01:01:29.064Z,98615.34
2022-11-24T01:03:56.530Z,98612.84
2022-11-24T01:06:26.496Z,98612.81
2022-11-24T01:08:54.130Z,98606.91
2022-11-24T01:11:54.696Z,98613.66
2022-11-24T01:14:24.580Z,98601.06
2022-11-24T01:16:51.695Z,98606.13
2022-11-24T01:19:18.701Z,98608.66
2022-11-24T01:21:46.020Z,98612.88
2022-11-24T01:24:13.301Z,98610.38
2022-11-24T01:26:41.401Z,98601.09
2022-11-24T01:29:10.388Z,98601.91
2022-11-24T01:31:37.247Z,98611.25
2022-11-24T01:34:04.104Z,98608.69
2022-11-24T01:36:30.839Z,98624.72
2022-11-24T01:38:57.566Z,98622.19
2022-11-24T01:41:26.003Z,98623.88
2022-11-24T01:43:55.187Z,98620.47
2022-11-24T01:46:36.215Z,98633.97
2022-11-24T01:49:08.504Z,98630.66
2022-11-24T01:52:06.535Z,98638.25
2022-11-24T01:54:40.150Z,98641.63
2022-11-24T01:57:29.688Z,98626.44
2022-11-24T02:00:10.813Z,98635.69
2022-11-24T02:02:38.285Z,98629.75
2022-11-24T02:05:28.698Z,98634.75
2022-11-24T02:08:00.474Z,98637.22
2022-11-24T02:10:27.386Z,98637.25
2022-11-24T02:12:57.551Z,98628.69
2022-11-24T02:15:25.237Z,98634.56
2022-11-24T02:17:51.972Z,98637.91
2022-11-24T02:20:18.930Z,98633.66
2022-11-24T02:23:20.670Z,98630.28
2022-11-24T02:26:16.203Z,98629.50
2022-11-24T02:28:43.113Z,98640.50
2022-11-24T02:31:10.525Z,98640.56
2022-11-24T02:33:38.122Z,98639.66
2022-11-24T02:36:05.150Z,98637.09
2022-11-24T02:38:35.124Z,98646.41
2022-11-24T02:41:09.044Z,98649.78
2022-11-24T02:43:45.381Z,98653.16
2022-11-24T02:46:12.345Z,98657.41
2022-11-24T02:48:39.389Z,98649.00
2022-11-24T02:51:06.245Z,98646.50
2022-11-24T02:53:32.960Z,98646.50
2022-11-24T02:55:59.728Z,98654.09
2022-11-24T02:58:26.568Z,98665.88
2022-11-24T03:00:54.384Z,98653.13
2022-11-24T03:03:21.848Z,98662.41
2022-11-24T03:05:48.698Z,98668.25
2022-11-24T03:08:15.750Z,98659.75
2022-11-24T03:10:42.503Z,98675.78
2022-11-24T03:13:09.301Z,98669.00
2022-11-24T03:15:36.728Z,98673.16
2022-11-24T03:18:04.095Z,98672.34
2022-11-24T03:20:30.896Z,98685.88
2022-11-24T03:22:57.639Z,98675.75
2022-11-24T03:25:24.484Z,98678.31
2022-11-24T03:27:51.165Z,98679.97
2022-11-24T03:30:18.102Z,98682.47
2022-11-24T03:32:44.871Z,98683.38
2022-11-24T03:35:12.066Z,98689.28
2022-11-24T03:37:38.753Z,98696.03
2022-11-24T03:40:06.458Z,98706.94
2022-11-24T03:42:33.272Z,98709.47
2022-11-24T03:45:16.669Z,98710.31
2022-11-24T03:47:51.692Z,98710.31
2022-11-24T03:50:18.447Z,98716.19
2022-11-24T03:52:45.173Z,98713.66
2022-11-24T03:55:11.877Z,98711.03
2022-11-24T03:57:38.621Z,98727.09
2022-11-24T04:00:06.747Z,98712.69
2022-11-24T04:02:33.531Z,98721.84
2022-11-24T04:05:00.318Z,98727.72
2022-11-24T04:07:27.112Z,98711.59
2022-11-24T04:09:53.818Z,98724.16
2022-11-24T04:12:39.184Z,98718.19
2022-11-24T04:15:06.519Z,98727.44
2022-11-24T04:17:33.228Z,98726.50
2022-11-24T04:19:59.921Z,98725.59
2022-11-24T04:22:26.631Z,98729.69
2022-11-24T04:24:53.408Z,98735.53
2022-11-24T04:27:20.178Z,98735.47
2022-11-24T04:29:46.889Z,98732.84
2022-11-24T04:32:13.595Z,98744.63
2022-11-24T04:34:40.325Z,98743.72
2022-11-24T04:37:07.034Z,98748.75
2022-11-24T04:39:33.950Z,98741.09
2022-11-24T04:42:00.871Z,98758.00
2022-11-24T04:44:27.671Z,98756.22
2022-11-24T04:46:54.752Z,98759.59
2022-11-24T04:49:22.448Z,98757.94
2022-11-24T04:51:49.507Z,98768.91
2022-11-24T04:54:16.869Z,98775.66
2022-11-24T04:56:44.760Z,98776.53
2022-11-24T04:59:15.119Z,98792.78
2022-11-24T05:02:27.130Z,98804.09
2022-11-24T05:07:39.317Z,98794.66
2022-11-24T05:13:47.668Z,98805.06
2022-11-24T05:16:48.530Z,98823.75
2022-11-24T05:27:42.978Z,98859.88
2022-11-24T05:30:11.757Z,98859.34
2022-11-24T05:32:39.071Z,98852.66
2022-11-24T05:35:06.661Z,98842.56
2022-11-24T05:37:33.379Z,98838.34
2022-11-24T05:40:00.062Z,98828.28
2022-11-24T05:42:46.561Z,98848.50
2022-11-24T05:45:18.719Z,98844.31
2022-11-24T05:47:46.295Z,98856.97
2022-11-24T05:50:16.755Z,98851.97
2022-11-24T05:52:43.721Z,98866.31
2022-11-24T05:55:11.577Z,98864.69
2022-11-24T05:57:38.455Z,98867.28
2022-11-24T06:00:07.953Z,98868.19
2022-11-24T06:02:35.125Z,98874.94
2022-11-24T06:05:02.001Z,98869.97
2022-11-24T06:07:28.795Z,98867.44
2022-11-24T06:09:55.547Z,98860.75
2022-11-24T06:12:22.266Z,98856.59
2022-11-24T06:14:48.987Z,98855.78
2022-11-24T06:17:15.691Z,98858.34
2022-11-24T06:19:45.444Z,98864.28
2022-11-24T06:22:12.565Z,98866.81
2022-11-24T06:24:39.296Z,98864.34
2022-11-24T06:27:06.711Z,98865.19
2022-11-24T06:29:33.415Z,98866.06
2022-11-24T06:32:00.225Z,98869.50
2022-11-24T06:34:27.135Z,98872.03
2022-11-24T06:36:53.941Z,98855.22
2022-11-24T06:39:20.668Z,98866.25
2022-11-24T06:41:50.684Z,98872.19
2022-11-24T06:44:18.198Z,98877.31
2022-11-24T06:46:49.970Z,98880.72
2022-11-24T06:49:16.984Z,98874.03
2022-11-24T07:19:42.251Z,98971.31
2022-11-24T07:22:55.935Z,98978.78
2022-11-24T07:30:39.709Z,99002.25
2022-11-24T07:33:44.360Z,99004.78
2022-11-24T07:38:02.701Z,99013.06
2022-11-24T07:49:29.442Z,99023.06
2022-11-24T07:51:56.212Z,99029.75
2022-11-24T07:54:25.961Z,99025.41
2022-11-24T07:56:56.102Z,99035.44
2022-11-24T07:59:23.067Z,99040.41
2022-11-24T08:01:55.120Z,99049.56
2022-11-24T08:04:22.065Z,99060.34
2022-11-24T08:06:48.797Z,99056.72
2022-11-24T08:09:15.530Z,99061.56
2022-11-24T08:11:43.493Z,99081.66
2022-11-24T08:17:29.318Z,99086.59
2022-11-24T08:19:56.143Z,99079.69
2022-11-24T08:22:27.869Z,99090.53
2022-11-24T08:24:54.576Z,99082.66
2022-11-24T08:27:32.370Z,99086.50
2022-11-24T08:35:18.911Z,99105.94
2022-11-24T08:37:50.869Z,99105.75
2022-11-24T08:40:18.134Z,99118.00
2022-11-24T08:42:55.100Z,99122.94
2022-11-24T08:45:56.912Z,99108.53
2022-11-24T08:48:23.969Z,99119.81
2022-11-24T08:50:50.790Z,99119.22
2022-11-24T08:55:47.373Z,99139.88
2022-11-24T08:58:15.119Z,99141.69
2022-11-24T09:00:42.634Z,99146.91
2022-11-24T09:03:12.969Z,99152.94
2022-11-24T09:05:55.209Z,99155.47
2022-11-24T09:08:22.049Z,99164.88
2022-11-24T09:10:49.478Z,99150.53
2022-11-24T09:13:16.351Z,99164.91
2022-11-24T09:15:43.517Z,99152.22
2022-11-24T09:18:10.646Z,99166.22
2022-11-24T09:20:37.641Z,99171.25
2022-11-24T09:23:05.174Z,99179.34
2022-11-24T09:25:32.247Z,99176.19
2022-11-24T09:28:00.151Z,99174.63
2022-11-24T09:30:27.630Z,99179.72
2022-11-24T09:32:56.801Z,99191.66
2022-11-24T09:35:24.673Z,99183.06
2022-11-24T09:37:52.217Z,99185.44
2022-11-24T09:40:19.394Z,99188.31
2022-11-24T09:43:15.796Z,99195.66
2022-11-24T09:46:12.311Z,99195.63
2022-11-24T09:48:46.473Z,99200.63
2022-11-24T09:51:15.931Z,99203.53
2022-11-24T09:53:55.139Z,99191.94
2022-11-24T09:56:29.868Z,99196.50
2022-11-24T09:59:15.655Z,99198.69
2022-11-24T10:01:47.079Z,99203.63
2022-11-24T10:04:30.347Z,99197.41
2022-11-24T10:07:22.850Z,99200.97
2022-11-24T10:10:17.422Z,99205.88
2022-11-24T10:13:20.306Z,99205.44
2022-11-24T10:16:14.977Z,99200.09
2022-11-24T10:19:15.486Z,99198.97
2022-11-24T10:21:54.735Z,99199.22
2022-11-24T10:24:52.345Z,99204.31
2022-11-24T10:27:31.525Z,99202.72
2022-11-24T10:30:01.289Z,99215.56
2022-11-24T10:32:40.980Z,99209.44
2022-11-24T10:35:28.152Z,99212.38
2022-11-24T10:38:16.730Z,99217.91
2022-11-24T10:40:57.448Z,99213.75
2022-11-24T10:43:30.465Z,99209.81
2022-11-24T10:46:23.186Z,99218.47
2022-11-24T10:49:55.161Z,99223.44
2022-11-24T10:52:26.311Z,99216.06
2022-11-24T10:55:05.618Z,99219.66
2022-11-24T10:57:40.485Z,99228.88
2022-11-24T11:00:35.760Z,99215.28
2022-11-24T11:03:22.088Z,99221.28
2022-11-24T11:06:18.280Z,99229.78
2022-11-24T11:08:50.743Z,99237.72
2022-11-24T11:11:35.683Z,99237.41
2022-11-24T11:14:08.338Z,99245.81
2022-11-24T11:21:33.470Z,99241.16
2022-11-24T11:24:04.342Z,99241.38
2022-11-24T11:26:38.341Z,99240.00
2022-11-24T11:35:01.363Z,99245.72
2022-11-24T11:37:32.804Z,99251.59
2022-11-24T11:40:00.311Z,99254.84
2022-11-24T11:43:00.748Z,99246.66
2022-11-24T11:45:40.156Z,99252.50
2022-11-24T11:48:43.688Z,99249.34
2022-11-24T11:51:47.725Z,99252.75
2022-11-24T11:54:32.399Z,99253.06
2022-11-24T11:57:11.732Z,99231.13
2022-11-24T12:00:05.615Z,99237.88
2022-11-24T12:02:41.526Z,99223.31
2022-11-24T12:05:32.605Z,99232.22
2022-11-24T12:08:29.393Z,99226.81
2022-11-24T12:11:42.669Z,99236.88
2022-11-24T12:15:10.481Z,99237.22
2022-11-24T12:18:55.130Z,99222.06
2022-11-24T12:21:28.433Z,99237.66
2022-11-24T12:24:36.766Z,99233.16
2022-11-24T12:27:38.018Z,99238.50
2022-11-24T12:30:14.440Z,99236.22
2022-11-24T12:33:29.224Z,99234.78
2022-11-24T12:36:31.397Z,99243.53
2022-11-24T12:39:10.392Z,99240.81
2022-11-24T12:41:56.766Z,99243.84
2022-11-24T12:44:58.856Z,99243.72
2022-11-24T12:48:03.674Z,99248.69
2022-11-24T12:50:37.407Z,99241.28
2022-11-24T12:53:14.875Z,99227.00
2022-11-24T12:55:43.698Z,99233.19
2022-11-24T12:58:31.012Z,99237.72
2022-11-24T13:01:16.752Z,99241.41
2022-11-24T13:04:13.072Z,99240.19
2022-11-24T13:06:58.449Z,99246.56
2022-11-24T13:09:25.174Z,99249.38
2022-11-24T13:12:15.752Z,99255.81
2022-11-24T13:14:45.963Z,99262.06
2022-11-24T13:17:39.616Z,99264.19
2022-11-24T13:20:19.296Z,99263.81
2022-11-24T13:23:00.327Z,99264.19
2022-11-24T13:25:33.986Z,99260.38
2022-11-24T13:28:03.812Z,99260.78
2022-11-24T13:30:33.553Z,99257.66
2022-11-24T13:33:25.785Z,99265.53
2022-11-24T13:36:03.974Z,99266.75
2022-11-24T13:38:46.007Z,99258.50
2022-11-24T13:41:31.797Z,99260.50
2022-11-24T13:44:13.614Z,99259.13
2022-11-24T13:47:06.507Z,99265.38
2022-11-24T13:49:53.627Z,99264.81
2022-11-24T13:52:41.582Z,99260.81
2022-11-24T13:55:14.130Z,99257.56
2022-11-24T13:57:45.189Z,99261.06
2022-11-24T14:00:27.674Z,99257.78
2022-11-24T14:03:19.560Z,99256.28
2022-11-24T14:05:51.254Z,99255.53
2022-11-24T14:08:31.236Z,99254.81
2022-11-24T14:11:01.451Z,99248.16
2022-11-24T14:13:32.124Z,99244.84
2022-11-24T14:16:09.309Z,99237.28
2022-11-24T14:18:42.622Z,99250.06
2022-11-24T14:21:41.316Z,99247.66
2022-11-24T14:24:39.817Z,99248.66
2022-11-24T14:27:16.538Z,99252.94
2022-11-24T14:30:01.364Z,99248.84
2022-11-24T14:32:29.043Z,99245.53
2022-11-24T14:34:56.954Z,99254.06
2022-11-24T14:37:23.893Z,99255.75
2022-11-24T14:39:50.658Z,99248.25
2022-11-24T14:42:21.922Z,99260.09
2022-11-24T14:45:00.954Z,99258.44
2022-11-24T14:47:32.659Z,99263.63
2022-11-24T14:50:16.165Z,99267.97
2022-11-24T14:52:56.310Z,99266.34
2022-11-24T14:55:32.209Z,99263.03
2022-11-24T14:58:00.001Z,99261.44
2022-11-24T15:00:32.632Z,99265.78
2022-11-24T15:03:02.463Z,99270.16
2022-11-24T15:05:52.525Z,99266.00
2022-11-24T15:08:19.747Z,99272.13
2022-11-24T15:10:47.253Z,99252.75
2022-11-24T15:13:24.040Z,99274.03
2022-11-24T15:16:02.909Z,99271.63
2022-11-24T15:18:44.878Z,99280.25
2022-11-24T15:21:18.828Z,99277.00
2022-11-24T15:24:06.381Z,99271.25
2022-11-24T15:26:41.992Z,99268.00
2022-11-24T15:29:10.998Z,99281.69
2022-11-24T15:31:39.628Z,99277.59
2022-11-24T15:34:07.246Z,99273.47
2022-11-24T15:36:33.958Z,99282.91
2022-11-24T15:39:00.693Z,99287.25
2022-11-24T15:44:13.600Z,99281.63
2022-11-24T15:46:40.454Z,99282.63
2022-11-24T15:49:07.427Z,99289.50
2022-11-24T15:51:35.868Z,99287.06
2022-11-24T15:54:02.791Z,99291.41
2022-11-24T15:56:32.925Z,99292.34
2022-11-24T15:59:00.914Z,99290.78
2022-11-24T16:01:34.317Z,99293.41
2022-11-24T16:04:02.416Z,99295.22
2022-11-24T16:06:29.531Z,99295.31
2022-11-24T16:08:58.073Z,99298.75
2022-11-24T16:11:25.227Z,99297.13
2022-11-24T16:13:53.702Z,99302.34
2022-11-24T16:16:22.911Z,99299.03
2022-11-24T16:18:50.515Z,99296.63
2022-11-24T16:21:17.204Z,99300.94
2022-11-24T16:23:43.966Z,99311.16
2022-11-24T16:26:10.711Z,99306.22
2022-11-24T16:28:37.488Z,99306.31
2022-11-24T16:31:04.321Z,99301.31
2022-11-24T16:33:32.664Z,99298.88
2022-11-24T16:35:59.363Z,99294.78
2022-11-24T16:38:26.068Z,99296.56
2022-11-24T16:40:56.173Z,99302.53
2022-11-24T16:43:24.360Z,99304.22
2022-11-24T16:46:09.199Z,99305.13
2022-11-24T16:48:36.887Z,99300.09
2022-11-24T16:51:09.972Z,99306.91
2022-11-24T16:53:37.327Z,99305.28
2022-11-24T16:56:04.347Z,99307.88
2022-11-24T16:58:31.083Z,99301.16
2022-11-24T17:01:13.292Z,99306.25
2022-11-24T17:03:40.789Z,99301.28
2022-11-24T17:06:11.595Z,99304.69
2022-11-24T17:08:40.605Z,99308.13
2022-11-24T17:11:16.537Z,99310.72
2022-11-24T17:13:45.520Z,99318.34
2022-11-24T17:16:17.106Z,99307.41
2022-11-24T17:18:44.270Z,99318.47
2022-11-24T17:21:17.993Z,99320.19
2022-11-24T17:23:45.135Z,99314.31
2022-11-24T17:26:15.412Z,99316.88
2022-11-24T17:28:42.946Z,99316.06
2022-11-24T17:31:27.167Z,99318.59
2022-11-24T17:33:57.414Z,99320.31
2022-11-24T17:36:25.813Z,99315.25
2022-11-24T17:38:52.919Z,99317.78
2022-11-24T17:41:22.386Z,99321.19
2022-11-24T17:43:57.736Z,99333.00
2022-11-24T17:46:27.317Z,99326.25
2022-11-24T17:48:54.640Z,99323.75
2022-11-24T17:51:24.961Z,99326.25
2022-11-24T17:53:54.140Z,99327.06
2022-11-24T17:56:27.124Z,99329.59
2022-11-24T17:58:57.063Z,99323.66
2022-11-24T18:01:24.709Z,99327.00
2022-11-24T18:03:53.660Z,99322.75
2022-11-24T18:06:24.944Z,99321.06
2022-11-24T18:08:53.023Z,99312.63
2022-11-24T18:11:31.721Z,99317.66
2022-11-24T18:14:02.702Z,99312.63
2022-11-24T18:16:34.823Z,99317.66
2022-11-24T18:19:09.152Z,99323.56
2022-11-24T18:21:41.265Z,99316.78
2022-11-24T18:24:11.642Z,99313.41
2022-11-24T18:26:40.327Z,99312.56
2022-11-24T18:29:07.784Z,99315.94
2022-11-24T18:31:35.958Z,99322.69
2022-11-24T18:34:05.401Z,99317.66
2022-11-24T18:36:32.720Z,99314.31
2022-11-24T18:39:05.774Z,99326.16
2022-11-24T18:41:33.404Z,99325.31
2022-11-24T18:44:07.667Z,99310.16
2022-11-24T18:46:34.735Z,99311.88
2022-11-24T18:49:01.492Z,99310.25
2022-11-24T18:51:28.639Z,99311.97
2022-11-24T18:53:57.819Z,99311.13
2022-11-24T18:56:25.219Z,99303.53
2022-11-24T18:58:54.493Z,99295.16
2022-11-24T19:01:25.490Z,99303.59
2022-11-24T19:04:01.893Z,99305.28
2022-11-24T19:06:35.049Z,99306.16
2022-11-24T19:09:07.525Z,99303.66
2022-11-24T19:11:39.108Z,99291.03
2022-11-24T19:14:08.639Z,99297.81
2022-11-24T19:16:36.272Z,99282.63
2022-11-24T19:19:03.873Z,99286.88
2022-11-24T19:21:33.989Z,99287.75
2022-11-24T19:24:04.835Z,99286.91
2022-11-24T19:26:34.995Z,99275.97
2022-11-24T19:29:03.019Z,99282.75
2022-11-24T19:31:29.938Z,99269.28
2022-11-24T19:33:58.574Z,99284.47
2022-11-24T19:36:26.192Z,99285.34
2022-11-24T19:38:56.255Z,99284.50
2022-11-24T19:41:29.108Z,99292.13
2022-11-24T19:43:57.859Z,99289.59
2022-11-24T19:46:27.908Z,99288.75
2022-11-24T19:48:58.603Z,99279.50
2022-11-24T19:51:32.670Z,99292.97
2022-11-24T19:54:00.554Z,99285.38
2022-11-24T19:56:31.252Z,99283.72
2022-11-24T19:58:58.125Z,99280.34
2022-11-24T20:01:43.982Z,99291.34
2022-11-24T20:04:37.854Z,99282.06
2022-11-24T20:33:15.673Z,99282.09
2022-11-24T21:04:16.211Z,99284.44
2022-11-24T21:06:43.054Z,99275.91
2022-11-24T21:09:10.339Z,99280.88
2022-11-24T21:11:38.841Z,99280.81
2022-11-24T21:14:08.371Z,99273.16
2022-11-24T21:16:38.703Z,99285.78
2022-11-24T21:19:13.172Z,99279.81
2022-11-24T21:21:42.460Z,99280.59
2022-11-24T21:24:17.545Z,99282.25
2022-11-24T21:26:51.175Z,99284.72
2022-11-24T21:29:21.745Z,99281.31
2022-11-24T21:31:48.695Z,99288.88
2022-11-24T21:34:18.833Z,99282.06
2022-11-24T21:36:46.220Z,99279.47
2022-11-24T21:39:15.293Z,99281.16
2022-11-24T21:41:43.462Z,99272.66
2022-11-24T21:44:13.719Z,99277.75
2022-11-24T21:46:45.977Z,99266.75
2022-11-24T21:49:16.237Z,99264.25
2022-11-24T21:51:42.987Z,99250.69
2022-11-24T21:54:15.797Z,99252.38
2022-11-24T21:56:44.422Z,99246.47
2022-11-24T21:59:11.299Z,99247.28
2022-11-24T22:01:38.248Z,99252.34
2022-11-24T22:04:05.273Z,99251.47
2022-11-24T22:06:33.222Z,99244.66
2022-11-24T22:09:00.028Z,99240.44
2022-11-24T22:11:26.962Z,99244.63
2022-11-24T22:13:53.828Z,99242.09
2022-11-24T22:16:23.936Z,99242.94
2022-11-24T22:18:51.462Z,99245.44
2022-11-24T22:21:25.530Z,99237.00
2022-11-24T22:23:53.174Z,99231.09
2022-11-24T22:26:23.155Z,99241.22
2022-11-24T22:28:50.692Z,99237.88
2022-11-24T22:31:21.634Z,99237.84
2022-11-24T22:33:49.693Z,99239.56
2022-11-24T22:36:20.640Z,99234.50
2022-11-24T22:38:52.313Z,99239.56
2022-11-24T22:41:19.125Z,99230.28
2022-11-24T22:43:47.016Z,99224.38
2022-11-24T22:46:17.024Z,99223.56
2022-11-24T22:48:45.636Z,99223.56
2022-11-24T22:51:18.917Z,99226.91
2022-11-24T22:53:54.713Z,99217.63
2022-11-24T22:56:22.182Z,99222.66
2022-11-24T22:58:49.670Z,99221.81
2022-11-24T23:01:23.594Z,99220.94
2022-11-24T23:03:54.231Z,99220.03
2022-11-24T23:06:24.738Z,99210.75
2022-11-24T23:08:52.627Z,99208.19
2022-11-24T23:11:30.753Z,99214.06
2022-11-24T23:14:02.651Z,99219.13
2022-11-24T23:16:30.128Z,99221.56
2022-11-24T23:18:57.425Z,99213.06
2022-11-24T23:21:30.885Z,99222.28
2022-11-24T23:24:01.412Z,99222.28
2022-11-24T23:26:32.033Z,99217.97
2022-11-24T23:28:59.228Z,99226.38
2022-11-24T23:31:28.770Z,99215.34
2022-11-24T23:34:02.343Z,99220.31
2022-11-24T23:36:30.432Z,99227.88
2022-11-24T23:39:04.593Z,99210.13
2022-11-24T23:41:31.913Z,99214.31
2022-11-24T23:43:58.750Z,99210.03
2022-11-24T23:46:27.244Z,99212.53
2022-11-24T23:48:55.295Z,99206.63
2022-11-24T23:51:30.984Z,99214.25
2022-11-24T23:53:59.947Z,99204.94
2022-11-24T23:56:32.770Z,99210.03
2022-11-24T23:59:01.970Z,99205.78
